createdAt,value
2017-11-05T00:02:02.249Z,13.80
2017-11-05T00:04:29.728Z,13.80
2017-11-05T00:06:57.966Z,13.80
2017-11-05T00:09:25.453Z,13.80
2017-11-05T00:11:53.766Z,13.70
2017-11-05T00:14:22.234Z,13.70
2017-11-05T00:16:49.722Z,13.80
2017-11-05T00:19:17.195Z,13.80
2017-11-05T00:21:44.725Z,13.70
2017-11-05T00:24:12.202Z,13.70
2017-11-05T00:26:39.712Z,13.80
2017-11-05T00:29:07.194Z,13.80
2017-11-05T00:31:34.660Z,13.80
2017-11-05T00:34:02.145Z,13.70
2017-11-05T00:36:30.076Z,13.70
2017-11-05T00:38:57.554Z,13.70
2017-11-05T00:41:25.031Z,13.70
2017-11-05T00:43:52.508Z,13.60
2017-11-05T00:46:20.755Z,13.70
2017-11-05T00:48:48.381Z,13.70
2017-11-05T00:51:15.867Z,13.70
2017-11-05T00:53:43.455Z,13.70
2017-11-05T00:56:11.708Z,13.60
2017-11-05T00:58:39.181Z,13.60
2017-11-05T01:01:06.658Z,13.70
2017-11-05T01:03:34.973Z,13.50
2017-11-05T01:06:02.443Z,13.50
2017-11-05T01:08:30.754Z,13.50
2017-11-05T01:10:59.010Z,13.40
2017-11-05T01:13:26.495Z,13.40
2017-11-05T01:15:54.772Z,13.40
2017-11-05T01:18:23.001Z,13.40
2017-11-05T01:20:50.464Z,13.40
2017-11-05T01:23:17.970Z,13.40
2017-11-05T01:25:46.206Z,13.30
2017-11-05T01:28:13.689Z,13.30
2017-11-05T01:30:41.945Z,13.30
2017-11-05T01:33:10.213Z,13.20
2017-11-05T01:35:37.692Z,13.20
2017-11-05T01:38:05.931Z,13.20
2017-11-05T01:40:33.990Z,13.20
2017-11-05T01:43:01.447Z,13.30
2017-11-05T01:45:28.989Z,13.20
2017-11-05T01:47:56.524Z,13.20
2017-11-05T01:50:24.852Z,13.20
2017-11-05T01:52:52.321Z,13.20
2017-11-05T01:55:19.800Z,13.20
2017-11-05T01:57:48.041Z,13.10
2017-11-05T02:00:15.515Z,13.10
2017-11-05T02:02:43.075Z,13.20
2017-11-05T02:05:10.567Z,13.10
2017-11-05T02:07:38.937Z,13.00
2017-11-05T02:10:07.175Z,13.00
2017-11-05T02:12:34.653Z,13.00
2017-11-05T02:15:04.381Z,12.90
2017-11-05T02:17:32.641Z,13.00
2017-11-05T02:20:00.214Z,12.90
2017-11-05T02:22:28.448Z,13.00
2017-11-05T02:24:55.932Z,13.00
2017-11-05T02:27:23.392Z,13.00
2017-11-05T02:29:50.869Z,13.00
2017-11-05T02:32:18.342Z,12.80
2017-11-05T02:34:45.824Z,12.80
2017-11-05T02:37:13.292Z,12.80
2017-11-05T02:39:40.842Z,12.90
2017-11-05T02:42:08.329Z,12.90
2017-11-05T02:44:35.816Z,12.90
2017-11-05T02:47:03.303Z,12.80
2017-11-05T02:49:30.780Z,12.80
2017-11-05T02:51:58.258Z,12.80
2017-11-05T02:54:25.730Z,12.80
2017-11-05T02:56:54.166Z,12.70
2017-11-05T02:59:21.654Z,12.70
2017-11-05T03:01:49.170Z,12.80
2017-11-05T03:04:16.640Z,12.70
2017-11-05T03:06:44.141Z,12.80
2017-11-05T03:09:12.418Z,12.70
2017-11-05T03:11:40.652Z,12.70
2017-11-05T03:14:08.162Z,12.70
2017-11-05T03:16:36.516Z,12.60
2017-11-05T03:19:04.915Z,12.50
2017-11-05T03:21:32.412Z,12.50
2017-11-05T03:23:59.915Z,12.50
2017-11-05T03:26:28.157Z,12.60
2017-11-05T03:28:55.658Z,12.60
2017-11-05T03:31:23.928Z,12.50
2017-11-05T03:33:52.166Z,12.60
2017-11-05T03:36:19.689Z,12.50
2017-11-05T03:38:47.170Z,12.60
2017-11-05T03:41:14.670Z,12.50
2017-11-05T03:43:42.933Z,12.50
2017-11-05T03:46:11.307Z,12.50
2017-11-05T03:48:38.778Z,12.40
2017-11-05T03:51:07.023Z,12.50
2017-11-05T03:53:34.513Z,12.40
2017-11-05T03:56:02.777Z,12.30
2017-11-05T03:58:30.260Z,12.30
2017-11-05T04:00:57.750Z,12.40
2017-11-05T04:03:25.666Z,12.40
2017-11-05T04:05:53.127Z,12.30
2017-11-05T04:08:21.393Z,12.30
2017-11-05T04:10:48.865Z,12.30
2017-11-05T04:13:17.102Z,12.30
2017-11-05T04:15:44.645Z,12.30
2017-11-05T04:18:12.159Z,12.30
2017-11-05T04:20:40.412Z,12.30
2017-11-05T04:23:07.886Z,12.20
2017-11-05T04:25:36.145Z,12.20
2017-11-05T04:28:03.605Z,12.20
2017-11-05T04:30:31.885Z,12.20
2017-11-05T04:32:59.353Z,12.20
2017-11-05T04:35:27.613Z,12.10
2017-11-05T04:37:55.092Z,12.10
2017-11-05T04:40:22.585Z,12.20
2017-11-05T04:42:50.074Z,12.10
2017-11-05T04:45:17.754Z,12.20
2017-11-05T04:47:45.989Z,12.10
2017-11-05T04:50:13.455Z,12.10
2017-11-05T04:52:40.934Z,12.10
2017-11-05T04:55:08.440Z,12.10
2017-11-05T04:57:35.924Z,12.10
2017-11-05T05:00:03.413Z,12.00
2017-11-05T05:02:31.842Z,11.90
2017-11-05T05:04:59.414Z,11.90
2017-11-05T05:07:26.904Z,11.90
2017-11-05T05:09:54.608Z,11.90
2017-11-05T05:12:22.101Z,11.90
2017-11-05T05:14:49.574Z,11.60
2017-11-05T05:17:17.042Z,11.60
2017-11-05T05:19:45.284Z,11.40
2017-11-05T05:22:12.772Z,11.30
2017-11-05T05:24:40.238Z,11.40
2017-11-05T05:27:08.560Z,11.30
2017-11-05T05:29:36.013Z,11.30
2017-11-05T05:32:03.492Z,11.20
2017-11-05T05:34:31.594Z,11.20
2017-11-05T05:36:59.825Z,11.10
2017-11-05T05:39:27.312Z,11.10
2017-11-05T05:41:54.866Z,11.10
2017-11-05T05:44:22.982Z,10.90
2017-11-05T05:46:50.449Z,10.90
2017-11-05T05:49:17.937Z,11.00
2017-11-05T05:51:45.425Z,11.00
2017-11-05T05:54:13.670Z,11.00
2017-11-05T05:56:41.141Z,11.00
2017-11-05T05:59:08.633Z,10.90
2017-11-05T06:01:37.338Z,10.90
2017-11-05T06:04:04.805Z,10.80
2017-11-05T06:06:32.286Z,10.90
2017-11-05T06:08:59.754Z,10.90
2017-11-05T06:11:27.233Z,10.90
2017-11-05T06:13:55.477Z,10.80
2017-11-05T06:16:22.968Z,10.80
2017-11-05T06:18:51.277Z,10.80
2017-11-05T06:21:18.744Z,10.80
2017-11-05T06:23:46.235Z,10.80
2017-11-05T06:26:14.469Z,10.70
2017-11-05T06:28:42.076Z,10.70
2017-11-05T06:31:11.041Z,10.80
2017-11-05T06:33:38.509Z,10.70
2017-11-05T06:36:06.027Z,10.70
2017-11-05T06:38:33.498Z,10.60
2017-11-05T06:41:00.977Z,10.60
2017-11-05T06:43:28.552Z,10.60
2017-11-05T06:45:56.238Z,10.50
2017-11-05T06:48:24.487Z,10.40
2017-11-05T06:50:51.971Z,10.50
2017-11-05T06:53:20.310Z,10.50
2017-11-05T06:55:47.820Z,10.50
2017-11-05T06:58:15.302Z,10.60
2017-11-05T07:00:42.785Z,10.50
2017-11-05T07:03:10.263Z,10.40
2017-11-05T07:05:37.734Z,10.40
2017-11-05T07:08:05.977Z,10.40
2017-11-05T07:10:33.510Z,10.40
2017-11-05T07:13:01.089Z,10.40
2017-11-05T07:15:28.567Z,10.40
2017-11-05T07:17:57.559Z,10.30
2017-11-05T07:20:25.794Z,10.40
2017-11-05T07:22:53.397Z,10.30
2017-11-05T07:25:20.909Z,10.30
2017-11-05T07:27:48.517Z,10.30
2017-11-05T07:30:16.111Z,10.40
2017-11-05T07:32:43.652Z,10.40
2017-11-05T07:35:11.882Z,10.40
2017-11-05T07:37:39.398Z,10.40
2017-11-05T07:40:07.641Z,10.40
2017-11-05T07:42:35.158Z,10.30
2017-11-05T07:45:02.630Z,10.40
2017-11-05T07:47:30.108Z,10.30
2017-11-05T07:49:58.337Z,10.40
2017-11-05T07:52:25.961Z,10.40
2017-11-05T07:54:54.250Z,10.30
2017-11-05T07:57:21.766Z,10.20
2017-11-05T07:59:49.290Z,10.20
2017-11-05T08:02:16.821Z,10.10
2017-11-05T08:04:45.161Z,10.00
2017-11-05T08:07:12.628Z,10.00
2017-11-05T08:09:40.124Z,10.00
2017-11-05T08:12:07.782Z,9.90
2017-11-05T08:14:36.689Z,10.00
2017-11-05T08:17:04.151Z,10.00
2017-11-05T08:19:31.738Z,10.00
2017-11-05T08:21:59.216Z,9.80
2017-11-05T08:24:26.916Z,9.70
2017-11-05T08:26:54.590Z,9.80
2017-11-05T08:29:22.443Z,9.90
2017-11-05T08:31:49.942Z,9.80
2017-11-05T08:34:17.466Z,9.90
2017-11-05T08:36:45.043Z,9.90
2017-11-05T08:39:12.556Z,9.90
2017-11-05T08:41:40.039Z,10.00
2017-11-05T08:44:07.525Z,10.00
2017-11-05T08:46:35.214Z,10.00
2017-11-05T08:49:02.729Z,10.20
2017-11-05T08:51:30.334Z,10.10
2017-11-05T08:53:57.796Z,10.20
2017-11-05T08:56:26.121Z,10.00
2017-11-05T08:58:54.539Z,10.00
2017-11-05T09:01:22.783Z,10.20
2017-11-05T09:03:50.392Z,10.20
2017-11-05T09:06:17.957Z,10.30
2017-11-05T09:08:46.428Z,10.30
2017-11-05T09:11:14.661Z,10.30
2017-11-05T09:13:42.362Z,10.30
2017-11-05T09:16:10.600Z,10.40
2017-11-05T09:18:38.089Z,10.40
2017-11-05T09:21:05.554Z,10.50
2017-11-05T09:23:34.812Z,10.30
2017-11-05T09:26:03.080Z,10.30
2017-11-05T09:28:30.650Z,10.30
2017-11-05T09:30:58.924Z,10.40
2017-11-05T09:33:26.416Z,10.40
2017-11-05T09:35:54.739Z,10.40
2017-11-05T09:38:23.624Z,10.40
2017-11-05T09:40:51.089Z,10.20
2017-11-05T09:43:18.590Z,10.20
2017-11-05T09:45:46.105Z,10.20
2017-11-05T09:48:13.642Z,10.20
2017-11-05T09:50:41.390Z,10.20
2017-11-05T09:53:09.761Z,10.20
2017-11-05T09:55:38.029Z,10.30
2017-11-05T09:58:05.507Z,10.20
2017-11-05T10:00:33.013Z,10.20
2017-11-05T10:03:00.601Z,10.30
2017-11-05T10:05:28.183Z,10.20
2017-11-05T10:07:56.407Z,10.20
2017-11-05T10:10:23.888Z,10.20
2017-11-05T10:12:51.486Z,10.20
2017-11-05T10:15:18.976Z,10.30
2017-11-05T10:17:46.452Z,10.30
2017-11-05T10:20:13.954Z,10.30
2017-11-05T10:22:41.436Z,10.40
2017-11-05T10:25:08.930Z,10.50
2017-11-05T10:27:36.387Z,10.60
2017-11-05T10:30:03.854Z,10.60
2017-11-05T10:32:32.298Z,10.60
2017-11-05T10:34:59.832Z,10.60
2017-11-05T10:37:27.525Z,10.70
2017-11-05T10:39:55.207Z,10.90
2017-11-05T10:42:22.684Z,10.90
2017-11-05T10:44:50.931Z,10.80
2017-11-05T10:47:18.407Z,10.80
2017-11-05T10:49:46.646Z,11.00
2017-11-05T10:52:14.125Z,10.90
2017-11-05T10:54:41.601Z,11.00
2017-11-05T10:57:09.837Z,11.00
2017-11-05T10:59:37.337Z,11.00
2017-11-05T11:02:05.576Z,11.20
2017-11-05T11:04:33.066Z,11.20
2017-11-05T11:07:00.527Z,11.30
2017-11-05T11:09:28.784Z,11.30
2017-11-05T11:11:56.259Z,11.30
2017-11-05T11:14:25.229Z,11.40
2017-11-05T11:16:52.894Z,11.40
2017-11-05T11:19:21.132Z,11.60
2017-11-05T11:21:48.594Z,11.60
2017-11-05T11:24:16.078Z,11.80
2017-11-05T11:26:43.546Z,11.90
2017-11-05T11:29:11.777Z,12.10
2017-11-05T11:31:39.321Z,12.10
2017-11-05T11:34:06.958Z,12.20
2017-11-05T11:36:35.232Z,12.10
2017-11-05T11:39:03.497Z,12.00
2017-11-05T11:41:31.727Z,12.00
2017-11-05T11:43:59.342Z,12.00
2017-11-05T11:46:27.765Z,12.10
2017-11-05T11:48:55.453Z,12.10
2017-11-05T11:51:22.930Z,12.20
2017-11-05T11:53:50.440Z,12.20
2017-11-05T11:56:17.938Z,12.20
2017-11-05T11:58:45.389Z,12.20
2017-11-05T12:01:12.876Z,12.30
2017-11-05T12:03:40.357Z,12.30
2017-11-05T12:06:08.065Z,12.20
2017-11-05T12:08:35.740Z,12.00
2017-11-05T12:11:03.957Z,11.80
2017-11-05T12:13:31.453Z,11.70
2017-11-05T12:15:58.917Z,12.00
2017-11-05T12:18:27.151Z,12.30
2017-11-05T12:20:54.630Z,12.30
2017-11-05T12:23:22.227Z,12.40
2017-11-05T12:25:49.709Z,12.30
2017-11-05T12:28:17.266Z,12.30
2017-11-05T12:30:44.734Z,12.40
2017-11-05T12:33:12.278Z,12.60
2017-11-05T12:35:39.763Z,12.80
2017-11-05T12:38:07.375Z,12.90
2017-11-05T12:40:35.854Z,13.10
2017-11-05T12:43:04.117Z,12.80
2017-11-05T12:45:33.176Z,12.80
2017-11-05T12:48:00.629Z,12.80
2017-11-05T12:50:28.118Z,12.80
2017-11-05T12:52:55.612Z,12.50
2017-11-05T12:55:23.298Z,12.40
2017-11-05T12:57:50.901Z,12.00
2017-11-05T13:00:19.896Z,11.90
2017-11-05T13:02:47.380Z,11.90
2017-11-05T13:05:15.623Z,11.90
2017-11-05T13:07:43.948Z,12.10
2017-11-05T13:10:11.972Z,12.10
2017-11-05T13:12:39.452Z,12.50
2017-11-05T13:15:07.696Z,12.80
2017-11-05T13:17:35.177Z,12.70
2017-11-05T13:20:03.630Z,12.40
2017-11-05T13:22:31.126Z,12.40
2017-11-05T13:24:59.161Z,12.30
2017-11-05T13:27:27.398Z,12.40
2017-11-05T13:29:55.738Z,12.40
2017-11-05T13:32:24.009Z,12.60
2017-11-05T13:34:52.236Z,12.60
2017-11-05T13:37:19.727Z,12.60
2017-11-05T13:39:47.985Z,12.20
2017-11-05T13:42:15.478Z,12.20
2017-11-05T13:44:43.829Z,12.10
2017-11-05T13:47:11.480Z,12.10
2017-11-05T13:49:39.019Z,11.90
2017-11-05T13:52:06.660Z,11.80
2017-11-05T13:54:34.269Z,11.80
2017-11-05T13:57:01.960Z,11.70
2017-11-05T13:59:30.204Z,11.20
2017-11-05T14:01:57.693Z,11.20
2017-11-05T14:04:25.998Z,10.90
2017-11-05T14:06:53.468Z,10.90
2017-11-05T14:09:20.946Z,10.60
2017-11-05T14:11:48.414Z,10.50
2017-11-05T14:14:16.647Z,10.20
2017-11-05T14:16:44.221Z,10.20
2017-11-05T14:19:11.718Z,10.20
2017-11-05T14:21:39.203Z,10.10
2017-11-05T14:24:06.676Z,10.20
2017-11-05T14:26:34.154Z,10.10
2017-11-05T14:29:01.626Z,10.20
2017-11-05T14:31:29.101Z,10.10
2017-11-05T14:33:57.356Z,10.20
2017-11-05T14:36:25.597Z,10.30
2017-11-05T14:38:53.070Z,10.30
2017-11-05T14:41:20.577Z,10.20
2017-11-05T14:43:48.848Z,10.10
2017-11-05T14:46:16.289Z,10.10
2017-11-05T14:48:43.797Z,10.10
2017-11-05T14:51:11.308Z,10.10
2017-11-05T14:53:38.794Z,10.20
2017-11-05T14:56:06.283Z,10.10
2017-11-05T14:58:33.820Z,10.10
2017-11-05T15:01:01.332Z,10.10
2017-11-05T15:03:28.906Z,10.00
2017-11-05T15:05:56.465Z,10.00
2017-11-05T15:08:24.077Z,10.00
2017-11-05T15:10:51.538Z,10.10
2017-11-05T15:13:19.209Z,10.00
2017-11-05T15:15:46.802Z,10.10
2017-11-05T15:18:14.273Z,10.10
2017-11-05T15:20:42.511Z,10.20
2017-11-05T15:23:10.013Z,10.20
2017-11-05T15:25:37.478Z,10.20
2017-11-05T15:28:04.957Z,10.30
2017-11-05T15:30:32.447Z,10.20
2017-11-05T15:33:01.551Z,10.10
2017-11-05T15:35:29.014Z,10.10
2017-11-05T15:37:56.500Z,10.00
2017-11-05T15:40:23.976Z,10.00
2017-11-05T15:42:51.537Z,10.10
2017-11-05T15:45:19.020Z,10.10
2017-11-05T15:47:46.497Z,10.10
2017-11-05T15:50:13.965Z,10.10
2017-11-05T15:52:44.726Z,10.10
2017-11-05T15:55:12.196Z,10.10
2017-11-05T15:57:39.948Z,10.00
2017-11-05T16:00:07.414Z,9.80
2017-11-05T16:02:35.438Z,9.90
2017-11-05T16:05:02.986Z,9.90
2017-11-05T16:07:30.464Z,9.70
2017-11-05T16:09:59.338Z,9.70
2017-11-05T16:12:26.851Z,9.70
2017-11-05T16:14:54.357Z,9.60
2017-11-05T16:17:21.898Z,9.60
2017-11-05T16:19:49.376Z,9.50
2017-11-05T16:22:17.646Z,9.30
2017-11-05T16:24:45.118Z,9.30
2017-11-05T16:27:13.369Z,9.40
2017-11-05T16:29:40.842Z,9.40
2017-11-05T16:32:09.278Z,9.50
2017-11-05T16:34:36.737Z,9.40
2017-11-05T16:37:04.244Z,9.40
2017-11-05T16:39:32.486Z,9.40
2017-11-05T16:41:59.969Z,9.30
2017-11-05T16:44:28.227Z,9.30
2017-11-05T16:46:56.053Z,9.30
2017-11-05T16:49:23.548Z,9.40
2017-11-05T16:51:51.013Z,9.30
2017-11-05T16:54:18.477Z,9.20
2017-11-05T16:56:46.774Z,9.20
2017-11-05T16:59:14.249Z,9.10
2017-11-05T17:01:41.790Z,9.20
2017-11-05T17:04:09.248Z,9.30
2017-11-05T17:06:36.904Z,9.20
2017-11-05T17:09:05.156Z,9.10
2017-11-05T17:11:32.666Z,9.10
2017-11-05T17:14:00.121Z,9.10
2017-11-05T17:16:27.586Z,9.10
2017-11-05T17:18:55.166Z,9.00
2017-11-05T17:21:22.660Z,9.00
2017-11-05T17:23:50.910Z,9.00
2017-11-05T17:26:18.601Z,9.00
2017-11-05T17:28:47.395Z,8.90
2017-11-05T17:31:14.934Z,8.80
2017-11-05T17:33:43.291Z,8.90
2017-11-05T17:36:11.500Z,8.90
2017-11-05T17:38:39.742Z,8.90
2017-11-05T17:41:08.161Z,8.90
2017-11-05T17:43:37.622Z,8.90
2017-11-05T17:46:05.307Z,8.90
2017-11-05T17:48:32.985Z,8.90
2017-11-05T17:51:00.545Z,8.90
2017-11-05T17:53:28.797Z,8.90
2017-11-05T17:55:56.278Z,8.90
2017-11-05T17:58:23.745Z,8.90
2017-11-05T18:00:51.225Z,8.80
2017-11-05T18:03:18.726Z,8.80
2017-11-05T18:05:46.180Z,8.80
2017-11-05T18:08:13.657Z,8.80
2017-11-05T18:10:41.899Z,8.80
2017-11-05T18:13:09.501Z,8.80
2017-11-05T18:15:36.970Z,8.80
2017-11-05T18:18:04.453Z,8.80
2017-11-05T18:20:31.925Z,8.70
2017-11-05T18:22:59.399Z,8.70
2017-11-05T18:25:27.633Z,8.60
2017-11-05T18:27:55.097Z,8.60
2017-11-05T18:30:22.592Z,8.60
2017-11-05T18:32:50.244Z,8.60
2017-11-05T18:35:17.900Z,8.50
2017-11-05T18:37:45.380Z,8.50
2017-11-05T18:40:13.642Z,8.40
2017-11-05T18:42:41.135Z,8.40
2017-11-05T18:45:08.765Z,8.40
2017-11-05T18:47:36.289Z,8.30
2017-11-05T18:50:03.762Z,8.20
2017-11-05T18:52:31.280Z,8.10
2017-11-05T18:54:58.792Z,8.10
2017-11-05T18:57:26.312Z,8.10
2017-11-05T18:59:53.809Z,8.00
2017-11-05T19:02:21.485Z,8.00
2017-11-05T19:04:49.741Z,8.00
2017-11-05T19:07:17.304Z,8.00
2017-11-05T19:09:45.590Z,7.90
2017-11-05T19:12:13.860Z,7.80
2017-11-05T19:14:41.333Z,7.80
2017-11-05T19:17:09.671Z,7.80
2017-11-05T19:19:37.166Z,7.80
2017-11-05T19:22:05.429Z,7.90
2017-11-05T19:24:33.699Z,7.90
2017-11-05T19:27:01.978Z,7.90
2017-11-05T19:29:30.216Z,7.90
2017-11-05T19:31:57.714Z,7.80
2017-11-05T19:34:26.105Z,7.90
2017-11-05T19:36:54.356Z,7.90
2017-11-05T19:39:21.822Z,7.90
2017-11-05T19:41:50.099Z,7.80
2017-11-05T19:44:17.682Z,7.80
2017-11-05T19:46:54.456Z,7.80
2017-11-05T19:49:27.890Z,7.70
2017-11-05T19:51:57.331Z,7.80
2017-11-05T19:54:25.836Z,7.80
2017-11-05T19:56:54.166Z,7.60
2017-11-05T19:59:26.632Z,7.60
2017-11-05T20:02:16.389Z,7.50
2017-11-05T20:05:05.496Z,7.50
2017-11-05T20:07:41.701Z,7.50
2017-11-05T20:10:31.653Z,7.50
2017-11-05T20:13:01.820Z,7.50
2017-11-05T20:15:30.915Z,7.50
2017-11-05T20:18:11.153Z,7.30
2017-11-05T20:21:10.149Z,7.30
2017-11-05T20:23:41.949Z,7.20
2017-11-05T20:26:12.627Z,7.20
2017-11-05T20:28:41.736Z,7.20
2017-11-05T20:31:11.073Z,7.10
2017-11-05T20:33:40.230Z,7.20
2017-11-05T20:39:24.905Z,7.20
2017-11-05T20:42:02.568Z,7.20
2017-11-05T20:44:30.449Z,7.20
2017-11-05T20:47:01.959Z,7.10
2017-11-05T20:49:29.665Z,7.10
2017-11-05T20:52:02.370Z,6.80
2017-11-05T20:54:32.801Z,6.80
2017-11-05T20:57:02.922Z,6.70
2017-11-05T20:59:30.526Z,6.70
2017-11-05T21:02:03.514Z,6.60
2017-11-05T21:04:33.839Z,6.70
2017-11-05T21:07:06.819Z,6.70
2017-11-05T21:09:35.403Z,6.70
2017-11-05T21:12:15.726Z,6.70
2017-11-05T21:14:48.000Z,6.70
2017-11-05T21:17:15.923Z,6.60
2017-11-05T21:20:01.279Z,6.70
2017-11-05T21:22:38.337Z,6.70
2017-11-05T21:25:10.915Z,6.60
2017-11-05T21:27:40.645Z,6.60
2017-11-05T21:30:08.150Z,6.60
2017-11-05T21:32:39.399Z,6.50
2017-11-05T21:35:07.405Z,6.50
2017-11-05T21:37:36.177Z,6.50
2017-11-05T21:40:03.708Z,6.40
2017-11-05T21:42:31.429Z,6.40
2017-11-05T21:45:00.342Z,6.40
2017-11-05T21:47:31.861Z,6.50
2017-11-05T21:50:02.836Z,6.50
2017-11-05T21:52:36.902Z,6.40
2017-11-05T21:55:07.869Z,6.30
2017-11-05T21:57:41.324Z,6.40
2017-11-05T22:00:12.722Z,6.40
2017-11-05T22:02:48.072Z,6.40
2017-11-05T22:05:16.342Z,6.40
2017-11-05T22:07:45.910Z,6.40
2017-11-05T22:10:14.211Z,6.40
2017-11-05T22:21:08.449Z,6.40
2017-11-05T22:23:47.692Z,6.40
2017-11-05T22:26:17.941Z,6.30
2017-11-05T22:28:53.453Z,6.40
2017-11-05T22:31:27.365Z,6.40
2017-11-05T22:34:00.682Z,6.40
2017-11-05T22:36:28.548Z,6.40
2017-11-05T22:39:02.322Z,6.40
2017-11-05T22:41:31.502Z,6.30
2017-11-05T22:44:06.641Z,6.20
2017-11-05T22:46:34.112Z,6.30
2017-11-05T22:49:01.599Z,6.30
2017-11-05T22:51:29.091Z,6.30
2017-11-05T22:53:56.792Z,6.30
2017-11-05T22:56:24.274Z,6.30
2017-11-05T22:58:51.777Z,6.30
2017-11-05T23:01:19.274Z,6.40
2017-11-05T23:03:47.535Z,6.30
2017-11-05T23:06:15.042Z,6.30
2017-11-05T23:08:42.916Z,6.40
2017-11-05T23:11:10.631Z,6.40
2017-11-05T23:13:39.190Z,6.30
2017-11-05T23:16:06.693Z,6.30
2017-11-05T23:18:34.930Z,6.30
2017-11-05T23:21:02.612Z,6.30
2017-11-05T23:23:30.885Z,6.10
2017-11-05T23:25:59.117Z,6.20
2017-11-05T23:28:26.665Z,6.10
2017-11-05T23:30:54.258Z,6.10
2017-11-05T23:33:21.790Z,6.10
2017-11-05T23:35:49.372Z,6.20
2017-11-05T23:38:16.922Z,6.20
2017-11-05T23:40:44.630Z,6.10
2017-11-05T23:43:13.458Z,6.10
2017-11-05T23:45:49.515Z,6.00
2017-11-05T23:48:17.018Z,5.90
2017-11-05T23:50:46.275Z,5.90
2017-11-05T23:53:37.606Z,5.80
